sensor_id;sensor_type;location;lat;lon;timestamp;pressure;altitude;pressure_sealevel;temperature;humidity
21838;BME280;11081;45.946;6.140;2024-02-28T00:00:36;94657.72;;;9.08;78.53
21838;BME280;11081;45.946;6.140;2024-02-28T00:03:04;94654.56;;;9.06;79.15
21838;BME280;11081;45.946;6.140;2024-02-28T00:05:32;94659.09;;;8.99;79.44
21838;BME280;11081;45.946;6.140;2024-02-28T00:08:01;94662.53;;;8.81;79.42
21838;BME280;11081;45.946;6.140;2024-02-28T00:10:29;94661.97;;;8.91;79.32
21838;BME280;11081;45.946;6.140;2024-02-28T00:12:58;94662.25;;;9.01;79.72
21838;BME280;11081;45.946;6.140;2024-02-28T00:15:26;94657.50;;;8.98;79.61
21838;BME280;11081;45.946;6.140;2024-02-28T00:17:55;94662.81;;;9.03;78.99
21838;BME280;11081;45.946;6.140;2024-02-28T00:20:23;94660.41;;;8.90;79.93
21838;BME280;11081;45.946;6.140;2024-02-28T00:22:54;94658.81;;;8.89;79.98
21838;BME280;11081;45.946;6.140;2024-02-28T00:25:23;94665.25;;;8.86;79.54
21838;BME280;11081;45.946;6.140;2024-02-28T00:27:52;94665.94;;;8.82;80.14
21838;BME280;11081;45.946;6.140;2024-02-28T00:30:20;94665.59;;;8.90;80.16
21838;BME280;11081;45.946;6.140;2024-02-28T00:32:48;94670.13;;;8.83;80.22
21838;BME280;11081;45.946;6.140;2024-02-28T00:35:16;94679.63;;;8.89;80.04
21838;BME280;11081;45.946;6.140;2024-02-28T00:37:44;94683.25;;;8.88;80.18
21838;BME280;11081;45.946;6.140;2024-02-28T00:40:12;94687.56;;;8.94;80.29
21838;BME280;11081;45.946;6.140;2024-02-28T00:42:42;94680.34;;;8.96;80.46
21838;BME280;11081;45.946;6.140;2024-02-28T00:45:10;94696.53;;;8.98;80.70
21838;BME280;11081;45.946;6.140;2024-02-28T00:47:38;94695.06;;;9.02;80.37
21838;BME280;11081;45.946;6.140;2024-02-28T00:50:07;94692.25;;;9.04;79.39
21838;BME280;11081;45.946;6.140;2024-02-28T00:52:35;94695.53;;;8.99;80.68
21838;BME280;11081;45.946;6.140;2024-02-28T00:55:04;94696.75;;;8.97;80.43
21838;BME280;11081;45.946;6.140;2024-02-28T00:57:33;94693.66;;;8.88;80.28
21838;BME280;11081;45.946;6.140;2024-02-28T01:08:48;94691.38;;;8.80;81.69
21838;BME280;11081;45.946;6.140;2024-02-28T01:11:16;94695.25;;;8.89;81.79
21838;BME280;11081;45.946;6.140;2024-02-28T01:13:44;94693.22;;;8.91;80.73
21838;BME280;11081;45.946;6.140;2024-02-28T01:16:12;94700.66;;;8.88;81.90
21838;BME280;11081;45.946;6.140;2024-02-28T01:18:40;94706.53;;;8.83;82.11
21838;BME280;11081;45.946;6.140;2024-02-28T01:21:08;94702.13;;;8.83;81.89
21838;BME280;11081;45.946;6.140;2024-02-28T01:23:36;94712.31;;;8.85;81.93
21838;BME280;11081;45.946;6.140;2024-02-28T01:26:06;94708.81;;;8.91;81.38
21838;BME280;11081;45.946;6.140;2024-02-28T01:28:34;94721.28;;;8.89;82.00
21838;BME280;11081;45.946;6.140;2024-02-28T01:31:02;94718.25;;;8.74;82.23
21838;BME280;11081;45.946;6.140;2024-02-28T01:33:30;94715.81;;;8.79;81.53
21838;BME280;11081;45.946;6.140;2024-02-28T01:35:59;94725.78;;;8.82;81.49
21838;BME280;11081;45.946;6.140;2024-02-28T01:38:27;94721.72;;;8.86;81.90
21838;BME280;11081;45.946;6.140;2024-02-28T01:40:55;94721.53;;;8.69;82.80
21838;BME280;11081;45.946;6.140;2024-02-28T01:43:24;94724.06;;;8.76;81.85
21838;BME280;11081;45.946;6.140;2024-02-28T01:50:15;94727.50;;;8.70;82.31
21838;BME280;11081;45.946;6.140;2024-02-28T01:52:43;94715.06;;;8.72;82.10
21838;BME280;11081;45.946;6.140;2024-02-28T01:55:11;94723.63;;;8.79;81.81
21838;BME280;11081;45.946;6.140;2024-02-28T01:57:39;94721.53;;;8.69;82.00
21838;BME280;11081;45.946;6.140;2024-02-28T02:00:10;94725.94;;;8.69;82.25
21838;BME280;11081;45.946;6.140;2024-02-28T02:02:39;94729.53;;;8.68;82.57
21838;BME280;11081;45.946;6.140;2024-02-28T02:05:08;94727.06;;;8.73;82.03
21838;BME280;11081;45.946;6.140;2024-02-28T02:07:37;94735.03;;;8.78;81.71
21838;BME280;11081;45.946;6.140;2024-02-28T02:10:06;94744.56;;;8.84;81.87
21838;BME280;11081;45.946;6.140;2024-02-28T02:12:37;94741.63;;;8.92;81.65
21838;BME280;11081;45.946;6.140;2024-02-28T02:15:05;94738.25;;;8.92;81.99
21838;BME280;11081;45.946;6.140;2024-02-28T02:17:35;94740.94;;;8.85;81.38
21838;BME280;11081;45.946;6.140;2024-02-28T02:20:04;94735.75;;;8.85;82.31
21838;BME280;11081;45.946;6.140;2024-02-28T02:22:36;94744.13;;;8.87;81.28
21838;BME280;11081;45.946;6.140;2024-02-28T02:25:06;94747.16;;;8.84;81.61
21838;BME280;11081;45.946;6.140;2024-02-28T02:27:34;94749.31;;;8.87;81.65
21838;BME280;11081;45.946;6.140;2024-02-28T02:30:02;94756.56;;;8.85;81.65
21838;BME280;11081;45.946;6.140;2024-02-28T02:32:31;94754.69;;;8.74;81.87
21838;BME280;11081;45.946;6.140;2024-02-28T02:34:59;94758.72;;;8.70;82.58
21838;BME280;11081;45.946;6.140;2024-02-28T02:37:27;94758.59;;;8.65;82.71
21838;BME280;11081;45.946;6.140;2024-02-28T02:39:56;94760.31;;;8.71;82.42
21838;BME280;11081;45.946;6.140;2024-02-28T02:42:24;94766.31;;;8.71;83.22
21838;BME280;11081;45.946;6.140;2024-02-28T02:44:53;94760.47;;;8.76;82.43
21838;BME280;11081;45.946;6.140;2024-02-28T02:47:21;94766.53;;;8.70;82.87
21838;BME280;11081;45.946;6.140;2024-02-28T02:49:49;94763.59;;;8.66;83.01
21838;BME280;11081;45.946;6.140;2024-02-28T02:52:17;94766.84;;;8.62;82.74
21838;BME280;11081;45.946;6.140;2024-02-28T02:54:45;94767.78;;;8.67;83.14
21838;BME280;11081;45.946;6.140;2024-02-28T02:57:15;94775.50;;;8.74;82.58
21838;BME280;11081;45.946;6.140;2024-02-28T02:59:43;94774.06;;;8.78;82.30
21838;BME280;11081;45.946;6.140;2024-02-28T03:02:11;94778.25;;;8.79;83.10
21838;BME280;11081;45.946;6.140;2024-02-28T03:04:39;94778.41;;;8.66;83.29
21838;BME280;11081;45.946;6.140;2024-02-28T03:07:07;94772.88;;;8.74;83.11
21838;BME280;11081;45.946;6.140;2024-02-28T03:09:35;94775.94;;;8.71;82.39
21838;BME280;11081;45.946;6.140;2024-02-28T03:12:04;94785.88;;;8.74;82.79
21838;BME280;11081;45.946;6.140;2024-02-28T03:14:34;94788.22;;;8.82;82.76
21838;BME280;11081;45.946;6.140;2024-02-28T03:17:02;94792.97;;;8.85;82.60
21838;BME280;11081;45.946;6.140;2024-02-28T03:19:30;94784.06;;;8.93;82.47
21838;BME280;11081;45.946;6.140;2024-02-28T03:21:58;94791.25;;;8.97;82.55
21838;BME280;11081;45.946;6.140;2024-02-28T03:24:26;94798.31;;;8.90;82.62
21838;BME280;11081;45.946;6.140;2024-02-28T03:26:55;94802.50;;;8.91;82.30
21838;BME280;11081;45.946;6.140;2024-02-28T03:29:23;94795.28;;;8.93;82.12
21838;BME280;11081;45.946;6.140;2024-02-28T03:31:52;94802.94;;;8.88;82.76
21838;BME280;11081;45.946;6.140;2024-02-28T03:34:20;94801.38;;;8.87;82.45
21838;BME280;11081;45.946;6.140;2024-02-28T03:36:48;94797.03;;;8.81;82.53
21838;BME280;11081;45.946;6.140;2024-02-28T03:39:16;94803.38;;;8.85;82.64
21838;BME280;11081;45.946;6.140;2024-02-28T03:41:45;94805.56;;;8.88;82.05
21838;BME280;11081;45.946;6.140;2024-02-28T03:44:13;94809.03;;;8.82;82.30
21838;BME280;11081;45.946;6.140;2024-02-28T03:46:41;94814.25;;;8.82;82.09
21838;BME280;11081;45.946;6.140;2024-02-28T03:49:10;94816.63;;;8.83;82.96
21838;BME280;11081;45.946;6.140;2024-02-28T03:51:39;94824.22;;;8.85;82.18
21838;BME280;11081;45.946;6.140;2024-02-28T03:54:08;94822.63;;;8.84;83.13
21838;BME280;11081;45.946;6.140;2024-02-28T03:56:37;94825.22;;;8.84;82.18
21838;BME280;11081;45.946;6.140;2024-02-28T03:59:05;94831.88;;;8.80;83.46
21838;BME280;11081;45.946;6.140;2024-02-28T04:01:33;94836.34;;;8.73;82.79
21838;BME280;11081;45.946;6.140;2024-02-28T04:04:01;94837.72;;;8.75;82.96
21838;BME280;11081;45.946;6.140;2024-02-28T04:06:30;94835.50;;;8.79;82.50
21838;BME280;11081;45.946;6.140;2024-02-28T04:08:58;94840.63;;;8.85;82.18
21838;BME280;11081;45.946;6.140;2024-02-28T04:11:27;94850.22;;;8.85;82.38
21838;BME280;11081;45.946;6.140;2024-02-28T04:13:55;94842.56;;;8.90;82.22
21838;BME280;11081;45.946;6.140;2024-02-28T04:16:23;94844.59;;;8.88;82.92
21838;BME280;11081;45.946;6.140;2024-02-28T04:18:51;94831.44;;;8.83;82.75
21838;BME280;11081;45.946;6.140;2024-02-28T04:21:19;94838.78;;;8.68;83.96
21838;BME280;11081;45.946;6.140;2024-02-28T04:23:49;94834.75;;;8.72;83.27
21838;BME280;11081;45.946;6.140;2024-02-28T04:26:17;94841.13;;;8.76;83.48
21838;BME280;11081;45.946;6.140;2024-02-28T04:28:45;94847.13;;;8.76;83.34
21838;BME280;11081;45.946;6.140;2024-02-28T04:31:13;94835.94;;;8.76;83.31
21838;BME280;11081;45.946;6.140;2024-02-28T04:33:41;94841.13;;;8.76;83.63
21838;BME280;11081;45.946;6.140;2024-02-28T04:36:09;94850.09;;;8.80;82.40
21838;BME280;11081;45.946;6.140;2024-02-28T04:38:37;94853.13;;;8.77;83.23
21838;BME280;11081;45.946;6.140;2024-02-28T04:41:06;94847.94;;;8.77;83.20
21838;BME280;11081;45.946;6.140;2024-02-28T04:43:34;94856.31;;;8.79;82.54
21838;BME280;11081;45.946;6.140;2024-02-28T04:46:03;94861.94;;;8.76;83.38
21838;BME280;11081;45.946;6.140;2024-02-28T04:48:31;94866.72;;;8.79;82.90
21838;BME280;11081;45.946;6.140;2024-02-28T04:51:00;94854.28;;;8.81;82.45
21838;BME280;11081;45.946;6.140;2024-02-28T04:53:28;94860.75;;;8.72;82.90
21838;BME280;11081;45.946;6.140;2024-02-28T04:55:56;94863.94;;;8.74;82.97
21838;BME280;11081;45.946;6.140;2024-02-28T04:58:25;94869.56;;;8.71;82.66
21838;BME280;11081;45.946;6.140;2024-02-28T05:00:53;94878.72;;;8.80;83.28
21838;BME280;11081;45.946;6.140;2024-02-28T05:03:22;94878.25;;;8.65;84.05
21838;BME280;11081;45.946;6.140;2024-02-28T05:05:51;94884.41;;;8.70;83.42
21838;BME280;11081;45.946;6.140;2024-02-28T05:08:20;94883.16;;;8.73;83.52
21838;BME280;11081;45.946;6.140;2024-02-28T05:10:49;94881.16;;;8.75;83.75
21838;BME280;11081;45.946;6.140;2024-02-28T05:13:18;94884.59;;;8.69;83.01
21838;BME280;11081;45.946;6.140;2024-02-28T05:15:48;94881.22;;;8.68;83.02
21838;BME280;11081;45.946;6.140;2024-02-28T05:18:16;94895.16;;;8.74;83.46
21838;BME280;11081;45.946;6.140;2024-02-28T05:20:44;94898.38;;;8.76;82.75
21838;BME280;11081;45.946;6.140;2024-02-28T05:23:12;94895.59;;;8.71;83.10
21838;BME280;11081;45.946;6.140;2024-02-28T05:25:40;94898.63;;;8.68;84.09
21838;BME280;11081;45.946;6.140;2024-02-28T05:28:08;94907.22;;;8.68;83.06
21838;BME280;11081;45.946;6.140;2024-02-28T05:30:37;94910.47;;;8.64;83.12
21838;BME280;11081;45.946;6.140;2024-02-28T05:33:11;94915.25;;;8.67;83.17
21838;BME280;11081;45.946;6.140;2024-02-28T05:35:39;94919.59;;;8.73;83.71
21838;BME280;11081;45.946;6.140;2024-02-28T05:38:07;94925.97;;;8.77;83.40
21838;BME280;11081;45.946;6.140;2024-02-28T05:40:35;94920.34;;;8.80;83.18
21838;BME280;11081;45.946;6.140;2024-02-28T05:43:03;94924.38;;;8.76;82.79
21838;BME280;11081;45.946;6.140;2024-02-28T05:45:32;94915.97;;;8.74;83.59
21838;BME280;11081;45.946;6.140;2024-02-28T05:48:00;94918.56;;;8.74;83.13
21838;BME280;11081;45.946;6.140;2024-02-28T05:50:30;94929.69;;;8.63;83.94
21838;BME280;11081;45.946;6.140;2024-02-28T05:52:59;94927.69;;;8.65;83.88
21838;BME280;11081;45.946;6.140;2024-02-28T05:55:27;94932.88;;;8.65;83.47
21838;BME280;11081;45.946;6.140;2024-02-28T05:57:56;94923.63;;;8.69;84.17
21838;BME280;11081;45.946;6.140;2024-02-28T06:00:24;94933.59;;;8.72;83.37
21838;BME280;11081;45.946;6.140;2024-02-28T06:02:52;94928.00;;;8.75;83.66
21838;BME280;11081;45.946;6.140;2024-02-28T06:05:20;94934.78;;;8.76;84.21
21838;BME280;11081;45.946;6.140;2024-02-28T06:07:50;94931.88;;;8.66;83.67
21838;BME280;11081;45.946;6.140;2024-02-28T06:10:18;94936.63;;;8.69;83.80
21838;BME280;11081;45.946;6.140;2024-02-28T06:12:47;94934.91;;;8.63;83.91
21838;BME280;11081;45.946;6.140;2024-02-28T06:15:15;94937.66;;;8.68;83.84
21838;BME280;11081;45.946;6.140;2024-02-28T06:17:43;94942.28;;;8.66;83.67
21838;BME280;11081;45.946;6.140;2024-02-28T06:20:12;94937.34;;;8.58;84.62
21838;BME280;11081;45.946;6.140;2024-02-28T06:22:40;94946.56;;;8.53;84.79
21838;BME280;11081;45.946;6.140;2024-02-28T06:25:09;94951.72;;;8.60;84.74
21838;BME280;11081;45.946;6.140;2024-02-28T06:27:45;94953.69;;;8.65;84.34
21838;BME280;11081;45.946;6.140;2024-02-28T06:30:13;94966.25;;;8.68;84.39
21838;BME280;11081;45.946;6.140;2024-02-28T06:32:41;94971.75;;;8.60;83.92
21838;BME280;11081;45.946;6.140;2024-02-28T06:35:09;94978.13;;;8.64;84.39
21838;BME280;11081;45.946;6.140;2024-02-28T06:37:37;94974.06;;;8.68;84.22
21838;BME280;11081;45.946;6.140;2024-02-28T06:40:06;94980.44;;;8.72;84.49
21838;BME280;11081;45.946;6.140;2024-02-28T06:42:37;94982.88;;;8.67;84.09
21838;BME280;11081;45.946;6.140;2024-02-28T06:45:06;94980.88;;;8.69;83.76
21838;BME280;11081;45.946;6.140;2024-02-28T06:47:35;94996.84;;;8.72;83.96
21838;BME280;11081;45.946;6.140;2024-02-28T06:50:04;95004.44;;;8.74;84.06
21838;BME280;11081;45.946;6.140;2024-02-28T06:52:33;95005.63;;;8.78;84.37
21838;BME280;11081;45.946;6.140;2024-02-28T06:55:01;94998.97;;;8.82;84.20
21838;BME280;11081;45.946;6.140;2024-02-28T06:57:33;95002.81;;;8.79;84.88
21838;BME280;11081;45.946;6.140;2024-02-28T07:00:03;95005.91;;;8.88;83.88
21838;BME280;11081;45.946;6.140;2024-02-28T07:02:31;95011.19;;;8.81;83.57
21838;BME280;11081;45.946;6.140;2024-02-28T07:04:59;95009.22;;;8.77;83.48
21838;BME280;11081;45.946;6.140;2024-02-28T07:07:27;95015.63;;;8.74;83.49
21838;BME280;11081;45.946;6.140;2024-02-28T07:09:55;95026.22;;;8.79;83.53
21838;BME280;11081;45.946;6.140;2024-02-28T07:12:23;95020.66;;;8.76;84.42
21838;BME280;11081;45.946;6.140;2024-02-28T07:14:51;95027.16;;;8.85;83.71
21838;BME280;11081;45.946;6.140;2024-02-28T07:17:21;95023.13;;;8.89;83.63
21838;BME280;11081;45.946;6.140;2024-02-28T07:19:49;95032.75;;;8.89;83.54
21838;BME280;11081;45.946;6.140;2024-02-28T07:22:17;95043.63;;;8.79;84.55
21838;BME280;11081;45.946;6.140;2024-02-28T07:24:45;95042.06;;;8.78;83.73
21838;BME280;11081;45.946;6.140;2024-02-28T07:27:13;95047.84;;;8.80;84.22
21838;BME280;11081;45.946;6.140;2024-02-28T07:29:42;95047.25;;;8.78;84.72
21838;BME280;11081;45.946;6.140;2024-02-28T07:32:11;95046.75;;;8.88;84.54
21838;BME280;11081;45.946;6.140;2024-02-28T07:34:40;95054.50;;;8.94;83.21
21838;BME280;11081;45.946;6.140;2024-02-28T07:37:09;95064.69;;;9.02;83.47
21838;BME280;11081;45.946;6.140;2024-02-28T07:39:38;95053.84;;;9.05;82.93
21838;BME280;11081;45.946;6.140;2024-02-28T07:42:06;95055.00;;;9.09;83.57
21838;BME280;11081;45.946;6.140;2024-02-28T07:44:34;95054.56;;;9.12;83.10
21838;BME280;11081;45.946;6.140;2024-02-28T07:47:02;95057.94;;;9.20;83.49
21838;BME280;11081;45.946;6.140;2024-02-28T07:49:30;95054.88;;;9.23;82.29
21838;BME280;11081;45.946;6.140;2024-02-28T07:52:00;95063.66;;;9.28;82.74
21838;BME280;11081;45.946;6.140;2024-02-28T07:54:29;95062.84;;;9.28;81.99
21838;BME280;11081;45.946;6.140;2024-02-28T07:56:57;95065.03;;;9.31;82.00
21838;BME280;11081;45.946;6.140;2024-02-28T07:59:25;95065.16;;;9.36;81.92
21838;BME280;11081;45.946;6.140;2024-02-28T08:01:53;95071.56;;;9.40;81.60
21838;BME280;11081;45.946;6.140;2024-02-28T08:04:22;95073.19;;;9.34;81.78
21838;BME280;11081;45.946;6.140;2024-02-28T08:06:51;95083.84;;;9.33;81.85
21838;BME280;11081;45.946;6.140;2024-02-28T08:09:20;95091.66;;;9.33;82.24
21838;BME280;11081;45.946;6.140;2024-02-28T08:11:49;95096.50;;;9.29;81.22
21838;BME280;11081;45.946;6.140;2024-02-28T08:14:17;95089.59;;;9.16;82.45
21838;BME280;11081;45.946;6.140;2024-02-28T08:16:45;95098.16;;;9.24;82.48
21838;BME280;11081;45.946;6.140;2024-02-28T08:19:13;95100.31;;;9.27;81.98
21838;BME280;11081;45.946;6.140;2024-02-28T08:21:41;95107.44;;;9.38;82.27
21838;BME280;11081;45.946;6.140;2024-02-28T08:24:10;95104.41;;;9.41;81.58
21838;BME280;11081;45.946;6.140;2024-02-28T08:26:39;95104.03;;;9.37;80.70
21838;BME280;11081;45.946;6.140;2024-02-28T08:29:08;95099.63;;;9.38;81.19
21838;BME280;11081;45.946;6.140;2024-02-28T08:31:41;95104.78;;;9.44;81.17
21838;BME280;11081;45.946;6.140;2024-02-28T08:34:09;95116.00;;;9.45;81.36
21838;BME280;11081;45.946;6.140;2024-02-28T08:36:37;95116.44;;;9.42;81.68
21838;BME280;11081;45.946;6.140;2024-02-28T08:39:05;95121.19;;;9.45;82.04
21838;BME280;11081;45.946;6.140;2024-02-28T08:41:36;95122.34;;;9.49;80.93
21838;BME280;11081;45.946;6.140;2024-02-28T08:44:05;95112.38;;;9.46;81.21
21838;BME280;11081;45.946;6.140;2024-02-28T08:46:33;95123.38;;;9.48;80.60
21838;BME280;11081;45.946;6.140;2024-02-28T08:49:02;95118.00;;;9.43;80.18
21838;BME280;11081;45.946;6.140;2024-02-28T08:51:30;95112.81;;;9.43;80.48
21838;BME280;11081;45.946;6.140;2024-02-28T08:53:58;95110.06;;;9.38;81.02
21838;BME280;11081;45.946;6.140;2024-02-28T08:56:26;95109.28;;;9.31;81.12
21838;BME280;11081;45.946;6.140;2024-02-28T08:58:54;95113.63;;;9.37;80.97
21838;BME280;11081;45.946;6.140;2024-02-28T09:01:23;95122.91;;;9.33;80.76
21838;BME280;11081;45.946;6.140;2024-02-28T09:03:52;95129.25;;;9.37;80.62
21838;BME280;11081;45.946;6.140;2024-02-28T09:06:20;95134.16;;;9.27;80.66
21838;BME280;11081;45.946;6.140;2024-02-28T09:08:48;95132.31;;;9.34;80.70
21838;BME280;11081;45.946;6.140;2024-02-28T09:11:16;95146.09;;;9.41;80.95
21838;BME280;11081;45.946;6.140;2024-02-28T09:13:45;95132.84;;;9.42;80.66
21838;BME280;11081;45.946;6.140;2024-02-28T09:16:13;95129.00;;;9.45;80.62
21838;BME280;11081;45.946;6.140;2024-02-28T09:18:43;95135.81;;;9.46;80.17
21838;BME280;11081;45.946;6.140;2024-02-28T09:21:11;95142.84;;;9.45;80.81
21838;BME280;11081;45.946;6.140;2024-02-28T09:23:39;95144.06;;;9.43;80.60
21838;BME280;11081;45.946;6.140;2024-02-28T09:26:07;95144.06;;;9.43;81.18
21838;BME280;11081;45.946;6.140;2024-02-28T09:28:35;95145.22;;;9.47;80.58
21838;BME280;11081;45.946;6.140;2024-02-28T09:31:03;95147.56;;;9.55;80.30
21838;BME280;11081;45.946;6.140;2024-02-28T09:33:33;95142.03;;;9.45;80.73
21838;BME280;11081;45.946;6.140;2024-02-28T09:36:04;95141.59;;;9.48;79.97
21838;BME280;11081;45.946;6.140;2024-02-28T09:38:32;95139.59;;;9.50;79.70
21838;BME280;11081;45.946;6.140;2024-02-28T09:41:01;95139.72;;;9.55;79.60
21838;BME280;11081;45.946;6.140;2024-02-28T09:43:31;95135.84;;;9.64;79.05
21838;BME280;11081;45.946;6.140;2024-02-28T09:46:01;95142.94;;;9.75;78.74
21838;BME280;11081;45.946;6.140;2024-02-28T09:48:31;95142.13;;;9.82;78.42
21838;BME280;11081;45.946;6.140;2024-02-28T09:51:00;95141.25;;;9.88;78.31
21838;BME280;11081;45.946;6.140;2024-02-28T09:53:29;95151.09;;;9.86;78.69
21838;BME280;11081;45.946;6.140;2024-02-28T09:55:58;95142.41;;;9.92;78.81
21838;BME280;11081;45.946;6.140;2024-02-28T09:58:26;95150.78;;;9.94;77.60
21838;BME280;11081;45.946;6.140;2024-02-28T10:00:59;95151.66;;;9.88;78.80
21838;BME280;11081;45.946;6.140;2024-02-28T10:03:30;95155.72;;;9.84;78.50
21838;BME280;11081;45.946;6.140;2024-02-28T10:05:59;95149.19;;;9.93;78.97
21838;BME280;11081;45.946;6.140;2024-02-28T10:08:32;95143.56;;;9.96;78.41
21838;BME280;11081;45.946;6.140;2024-02-28T10:11:01;95145.00;;;9.92;78.64
21838;BME280;11081;45.946;6.140;2024-02-28T10:13:29;95137.63;;;9.89;78.22
21838;BME280;11081;45.946;6.140;2024-02-28T10:15:58;95150.34;;;9.97;78.34
21838;BME280;11081;45.946;6.140;2024-02-28T10:18:26;95152.38;;;9.95;78.21
21838;BME280;11081;45.946;6.140;2024-02-28T10:20:54;95143.13;;;9.99;77.10
21838;BME280;11081;45.946;6.140;2024-02-28T10:23:23;95153.84;;;10.09;77.61
21838;BME280;11081;45.946;6.140;2024-02-28T10:25:52;95149.78;;;10.13;77.82
21838;BME280;11081;45.946;6.140;2024-02-28T10:28:23;95147.31;;;10.18;77.44
21838;BME280;11081;45.946;6.140;2024-02-28T10:30:52;95149.34;;;10.16;77.66
21838;BME280;11081;45.946;6.140;2024-02-28T10:33:21;95152.16;;;10.21;77.29
21838;BME280;11081;45.946;6.140;2024-02-28T10:35:50;95151.75;;;10.18;77.26
21838;BME280;11081;45.946;6.140;2024-02-28T10:38:19;95164.66;;;10.13;76.14
21838;BME280;11081;45.946;6.140;2024-02-28T10:40:48;95156.97;;;10.18;77.34
21838;BME280;11081;45.946;6.140;2024-02-28T10:43:20;95169.41;;;10.22;76.73
21838;BME280;11081;45.946;6.140;2024-02-28T10:45:48;95164.91;;;10.29;76.39
21838;BME280;11081;45.946;6.140;2024-02-28T10:48:37;95165.00;;;10.16;75.75
21838;BME280;11081;45.946;6.140;2024-02-28T10:51:06;95171.97;;;10.04;77.73
21838;BME280;11081;45.946;6.140;2024-02-28T10:53:37;95181.53;;;10.10;77.00
21838;BME280;11081;45.946;6.140;2024-02-28T10:56:06;95175.88;;;10.13;76.44
21838;BME280;11081;45.946;6.140;2024-02-28T10:58:51;95173.75;;;10.28;76.00
21838;BME280;11081;45.946;6.140;2024-02-28T11:01:19;95166.34;;;10.44;76.33
21838;BME280;11081;45.946;6.140;2024-02-28T11:03:48;95169.97;;;10.43;75.99
21838;BME280;11081;45.946;6.140;2024-02-28T11:06:19;95169.78;;;10.56;75.73
21838;BME280;11081;45.946;6.140;2024-02-28T11:08:49;95184.41;;;10.75;75.90
21838;BME280;11081;45.946;6.140;2024-02-28T11:11:21;95182.97;;;10.61;75.46
21838;BME280;11081;45.946;6.140;2024-02-28T11:13:54;95184.16;;;10.65;75.07
21838;BME280;11081;45.946;6.140;2024-02-28T11:16:29;95184.84;;;10.72;74.54
21838;BME280;11081;45.946;6.140;2024-02-28T11:18:58;95182.66;;;10.87;75.33
21838;BME280;11081;45.946;6.140;2024-02-28T11:21:27;95181.16;;;11.10;74.91
21838;BME280;11081;45.946;6.140;2024-02-28T11:23:59;95186.53;;;11.26;73.76
21838;BME280;11081;45.946;6.140;2024-02-28T11:26:28;95191.19;;;11.36;72.98
21838;BME280;11081;45.946;6.140;2024-02-28T11:28:57;95195.75;;;11.29;72.84
21838;BME280;11081;45.946;6.140;2024-02-28T11:31:25;95197.28;;;11.07;73.34
21838;BME280;11081;45.946;6.140;2024-02-28T11:33:53;95196.38;;;11.13;73.14
21838;BME280;11081;45.946;6.140;2024-02-28T11:36:22;95189.72;;;10.98;72.42
21838;BME280;11081;45.946;6.140;2024-02-28T11:38:50;95198.13;;;11.00;72.44
21838;BME280;11081;45.946;6.140;2024-02-28T11:41:25;95204.16;;;11.01;72.48
21838;BME280;11081;45.946;6.140;2024-02-28T11:43:54;95195.53;;;11.00;72.31
21838;BME280;11081;45.946;6.140;2024-02-28T11:46:24;95198.84;;;11.08;72.43
21838;BME280;11081;45.946;6.140;2024-02-28T11:48:52;95195.22;;;11.09;71.60
21838;BME280;11081;45.946;6.140;2024-02-28T11:51:21;95202.63;;;11.23;72.67
21838;BME280;11081;45.946;6.140;2024-02-28T11:53:50;95196.19;;;11.26;70.98
21838;BME280;11081;45.946;6.140;2024-02-28T11:56:18;95196.88;;;11.33;71.63
21838;BME280;11081;45.946;6.140;2024-02-28T11:58:51;95205.19;;;11.42;70.63
21838;BME280;11081;45.946;6.140;2024-02-28T12:01:20;95192.09;;;11.30;71.95
21838;BME280;11081;45.946;6.140;2024-02-28T12:04:01;95198.81;;;11.38;70.15
21838;BME280;11081;45.946;6.140;2024-02-28T12:06:30;95199.94;;;11.30;69.60
21838;BME280;11081;45.946;6.140;2024-02-28T12:08:58;95202.09;;;11.33;70.63
21838;BME280;11081;45.946;6.140;2024-02-28T12:11:26;95203.06;;;11.50;70.32
21838;BME280;11081;45.946;6.140;2024-02-28T12:13:56;95197.84;;;11.50;70.24
21838;BME280;11081;45.946;6.140;2024-02-28T12:16:24;95195.22;;;11.62;69.87
21838;BME280;11081;45.946;6.140;2024-02-28T12:18:54;95196.38;;;11.66;69.46
21838;BME280;11081;45.946;6.140;2024-02-28T12:21:23;95188.09;;;11.81;70.00
21838;BME280;11081;45.946;6.140;2024-02-28T12:23:51;95189.56;;;11.77;69.14
21838;BME280;11081;45.946;6.140;2024-02-28T12:26:20;95192.63;;;11.74;69.05
21838;BME280;11081;45.946;6.140;2024-02-28T12:28:48;95188.81;;;11.88;69.65
21838;BME280;11081;45.946;6.140;2024-02-28T12:31:16;95194.94;;;12.05;68.56
21838;BME280;11081;45.946;6.140;2024-02-28T12:33:45;95184.69;;;12.15;68.28
21838;BME280;11081;45.946;6.140;2024-02-28T12:36:13;95186.28;;;12.16;67.82
21838;BME280;11081;45.946;6.140;2024-02-28T12:38:43;95184.03;;;12.08;68.10
21838;BME280;11081;45.946;6.140;2024-02-28T12:41:11;95186.75;;;12.13;68.53
21838;BME280;11081;45.946;6.140;2024-02-28T12:43:39;95189.38;;;11.90;67.44
21838;BME280;11081;45.946;6.140;2024-02-28T12:46:07;95191.25;;;11.59;68.43
21838;BME280;11081;45.946;6.140;2024-02-28T12:48:37;95197.72;;;11.57;69.59
21838;BME280;11081;45.946;6.140;2024-02-28T12:51:06;95202.59;;;11.53;69.38
21838;BME280;11081;45.946;6.140;2024-02-28T12:53:34;95200.06;;;11.35;68.47
21838;BME280;11081;45.946;6.140;2024-02-28T12:56:04;95207.69;;;11.37;69.87
21838;BME280;11081;45.946;6.140;2024-02-28T12:58:32;95205.97;;;11.30;69.72
21838;BME280;11081;45.946;6.140;2024-02-28T13:01:00;95205.84;;;11.25;69.78
21838;BME280;11081;45.946;6.140;2024-02-28T13:03:28;95206.88;;;11.36;68.88
21838;BME280;11081;45.946;6.140;2024-02-28T13:05:56;95207.44;;;11.26;70.52
21838;BME280;11081;45.946;6.140;2024-02-28T13:08:24;95209.03;;;11.39;69.77
21838;BME280;11081;45.946;6.140;2024-02-28T13:10:52;95207.25;;;11.10;70.46
21838;BME280;11081;45.946;6.140;2024-02-28T13:13:25;95209.56;;;11.18;70.21
21838;BME280;11081;45.946;6.140;2024-02-28T13:15:53;95210.97;;;11.32;70.10
21838;BME280;11081;45.946;6.140;2024-02-28T13:18:21;95209.03;;;11.39;69.59
21838;BME280;11081;45.946;6.140;2024-02-28T13:20:49;95197.84;;;11.50;69.00
21838;BME280;11081;45.946;6.140;2024-02-28T13:23:17;95206.94;;;11.59;68.92
21838;BME280;11081;45.946;6.140;2024-02-28T13:25:45;95202.16;;;11.56;68.99
21838;BME280;11081;45.946;6.140;2024-02-28T13:28:14;95204.53;;;11.58;69.48